sensor_id;sensor_type;location;lat;lon;timestamp;P1;durP1;ratioP1;P2;durP2;ratioP2
18623;SDS011;9441;51.420;7.036;2023-05-07T00:00:13;7.95;;;2.88;;
18623;SDS011;9441;51.420;7.036;2023-05-07T00:01:19;9.68;;;3.22;;
18623;SDS011;9441;51.420;7.036;2023-05-07T00:02:22;5.65;;;3.03;;
18623;SDS011;9441;51.420;7.036;2023-05-07T00:03:23;10.45;;;3.28;;
18623;SDS011;9441;51.420;7.036;2023-05-07T00:04:26;7.25;;;3.40;;
18623;SDS011;9441;51.420;7.036;2023-05-07T00:05:28;12.20;;;3.20;;
18623;SDS011;9441;51.420;7.036;2023-05-07T00:06:31;7.13;;;2.90;;
18623;SDS011;9441;51.420;7.036;2023-05-07T00:07:33;5.68;;;3.40;;
18623;SDS011;9441;51.420;7.036;2023-05-07T00:08:35;4.05;;;3.10;;
18623;SDS011;9441;51.420;7.036;2023-05-07T00:09:37;14.68;;;3.65;;
18623;SDS011;9441;51.420;7.036;2023-05-07T00:10:39;4.57;;;2.90;;
18623;SDS011;9441;51.420;7.036;2023-05-07T00:11:40;6.35;;;3.00;;
18623;SDS011;9441;51.420;7.036;2023-05-07T00:12:43;4.03;;;3.05;;
18623;SDS011;9441;51.420;7.036;2023-05-07T00:13:44;5.75;;;3.33;;
18623;SDS011;9441;51.420;7.036;2023-05-07T00:14:46;7.45;;;3.25;;
18623;SDS011;9441;51.420;7.036;2023-05-07T00:15:47;5.55;;;3.22;;
18623;SDS011;9441;51.420;7.036;2023-05-07T00:16:51;5.97;;;3.03;;
18623;SDS011;9441;51.420;7.036;2023-05-07T00:17:53;5.47;;;3.30;;
18623;SDS011;9441;51.420;7.036;2023-05-07T00:18:55;8.27;;;4.25;;
18623;SDS011;9441;51.420;7.036;2023-05-07T00:19:56;5.97;;;3.15;;
18623;SDS011;9441;51.420;7.036;2023-05-07T00:20:59;6.85;;;3.45;;
18623;SDS011;9441;51.420;7.036;2023-05-07T00:22:00;5.43;;;3.20;;
18623;SDS011;9441;51.420;7.036;2023-05-07T00:23:02;5.38;;;3.10;;
18623;SDS011;9441;51.420;7.036;2023-05-07T00:24:04;11.55;;;3.08;;
18623;SDS011;9441;51.420;7.036;2023-05-07T00:25:06;6.38;;;3.00;;
18623;SDS011;9441;51.420;7.036;2023-05-07T00:26:08;10.57;;;3.20;;
18623;SDS011;9441;51.420;7.036;2023-05-07T00:27:11;5.70;;;2.65;;
18623;SDS011;9441;51.420;7.036;2023-05-07T00:28:13;9.10;;;3.20;;
18623;SDS011;9441;51.420;7.036;2023-05-07T00:29:15;4.75;;;3.08;;
18623;SDS011;9441;51.420;7.036;2023-05-07T00:30:17;7.00;;;3.40;;
18623;SDS011;9441;51.420;7.036;2023-05-07T00:31:18;5.22;;;3.58;;
18623;SDS011;9441;51.420;7.036;2023-05-07T00:32:22;4.30;;;3.05;;
18623;SDS011;9441;51.420;7.036;2023-05-07T00:33:23;9.57;;;3.35;;
18623;SDS011;9441;51.420;7.036;2023-05-07T00:34:26;13.77;;;3.83;;
18623;SDS011;9441;51.420;7.036;2023-05-07T00:35:28;7.68;;;3.63;;
18623;SDS011;9441;51.420;7.036;2023-05-07T00:36:30;8.25;;;3.33;;
18623;SDS011;9441;51.420;7.036;2023-05-07T00:37:31;5.43;;;3.28;;
18623;SDS011;9441;51.420;7.036;2023-05-07T00:38:34;9.75;;;3.53;;
18623;SDS011;9441;51.420;7.036;2023-05-07T00:39:35;12.82;;;3.67;;
18623;SDS011;9441;51.420;7.036;2023-05-07T00:40:37;7.43;;;3.50;;
18623;SDS011;9441;51.420;7.036;2023-05-07T00:41:39;11.32;;;3.47;;
18623;SDS011;9441;51.420;7.036;2023-05-07T00:42:41;9.20;;;3.15;;
18623;SDS011;9441;51.420;7.036;2023-05-07T00:43:47;7.22;;;3.45;;
18623;SDS011;9441;51.420;7.036;2023-05-07T00:44:51;3.97;;;3.17;;
18623;SDS011;9441;51.420;7.036;2023-05-07T00:45:53;7.70;;;3.42;;
18623;SDS011;9441;51.420;7.036;2023-05-07T00:46:56;4.88;;;3.05;;
18623;SDS011;9441;51.420;7.036;2023-05-07T00:48:00;4.68;;;3.28;;
18623;SDS011;9441;51.420;7.036;2023-05-07T00:49:02;7.43;;;3.60;;
18623;SDS011;9441;51.420;7.036;2023-05-07T00:50:04;4.78;;;3.70;;
18623;SDS011;9441;51.420;7.036;2023-05-07T00:51:07;6.65;;;3.45;;
18623;SDS011;9441;51.420;7.036;2023-05-07T00:52:09;5.65;;;3.40;;
18623;SDS011;9441;51.420;7.036;2023-05-07T00:53:11;6.25;;;3.60;;
18623;SDS011;9441;51.420;7.036;2023-05-07T00:54:13;4.43;;;3.33;;
18623;SDS011;9441;51.420;7.036;2023-05-07T00:55:15;11.13;;;3.30;;
18623;SDS011;9441;51.420;7.036;2023-05-07T00:56:17;10.95;;;4.10;;
18623;SDS011;9441;51.420;7.036;2023-05-07T00:57:19;12.40;;;3.83;;
18623;SDS011;9441;51.420;7.036;2023-05-07T00:58:21;7.38;;;3.67;;
18623;SDS011;9441;51.420;7.036;2023-05-07T00:59:24;6.72;;;3.88;;
18623;SDS011;9441;51.420;7.036;2023-05-07T01:00:25;7.05;;;3.38;;
18623;SDS011;9441;51.420;7.036;2023-05-07T01:01:28;10.15;;;3.63;;
18623;SDS011;9441;51.420;7.036;2023-05-07T01:02:30;6.05;;;3.80;;
18623;SDS011;9441;51.420;7.036;2023-05-07T01:03:33;7.78;;;3.67;;
18623;SDS011;9441;51.420;7.036;2023-05-07T01:04:35;6.65;;;3.60;;
18623;SDS011;9441;51.420;7.036;2023-05-07T01:05:37;8.93;;;3.70;;
18623;SDS011;9441;51.420;7.036;2023-05-07T01:06:39;3.85;;;3.25;;
18623;SDS011;9441;51.420;7.036;2023-05-07T01:07:42;5.67;;;3.60;;
18623;SDS011;9441;51.420;7.036;2023-05-07T01:08:44;11.90;;;3.88;;
18623;SDS011;9441;51.420;7.036;2023-05-07T01:09:47;6.40;;;3.90;;
18623;SDS011;9441;51.420;7.036;2023-05-07T01:10:48;10.20;;;3.80;;
18623;SDS011;9441;51.420;7.036;2023-05-07T01:11:51;8.10;;;3.35;;
18623;SDS011;9441;51.420;7.036;2023-05-07T01:12:53;7.60;;;3.67;;
18623;SDS011;9441;51.420;7.036;2023-05-07T01:13:56;10.17;;;3.73;;
18623;SDS011;9441;51.420;7.036;2023-05-07T01:14:59;9.43;;;3.63;;
18623;SDS011;9441;51.420;7.036;2023-05-07T01:16:01;5.43;;;3.97;;
18623;SDS011;9441;51.420;7.036;2023-05-07T01:17:03;7.33;;;3.93;;
18623;SDS011;9441;51.420;7.036;2023-05-07T01:18:05;7.88;;;4.03;;
18623;SDS011;9441;51.420;7.036;2023-05-07T01:19:10;5.93;;;3.87;;
18623;SDS011;9441;51.420;7.036;2023-05-07T01:20:14;7.43;;;4.00;;
18623;SDS011;9441;51.420;7.036;2023-05-07T01:21:17;7.20;;;3.57;;
18623;SDS011;9441;51.420;7.036;2023-05-07T01:22:25;11.87;;;4.40;;
18623;SDS011;9441;51.420;7.036;2023-05-07T01:23:29;10.80;;;3.87;;
18623;SDS011;9441;51.420;7.036;2023-05-07T01:24:32;5.23;;;4.00;;
18623;SDS011;9441;51.420;7.036;2023-05-07T01:25:34;7.73;;;4.20;;
18623;SDS011;9441;51.420;7.036;2023-05-07T01:26:36;11.02;;;4.60;;
18623;SDS011;9441;51.420;7.036;2023-05-07T01:27:37;10.02;;;4.25;;
18623;SDS011;9441;51.420;7.036;2023-05-07T01:28:40;8.75;;;3.65;;
18623;SDS011;9441;51.420;7.036;2023-05-07T01:29:42;8.95;;;3.70;;
18623;SDS011;9441;51.420;7.036;2023-05-07T01:30:44;5.72;;;3.85;;
18623;SDS011;9441;51.420;7.036;2023-05-07T01:31:49;10.52;;;4.18;;
18623;SDS011;9441;51.420;7.036;2023-05-07T01:32:56;7.73;;;4.37;;
18623;SDS011;9441;51.420;7.036;2023-05-07T01:33:58;6.93;;;4.13;;
18623;SDS011;9441;51.420;7.036;2023-05-07T01:35:01;8.13;;;4.10;;
18623;SDS011;9441;51.420;7.036;2023-05-07T01:36:04;8.70;;;4.03;;
18623;SDS011;9441;51.420;7.036;2023-05-07T01:37:07;12.95;;;4.35;;
18623;SDS011;9441;51.420;7.036;2023-05-07T01:38:10;8.73;;;5.67;;
18623;SDS011;9441;51.420;7.036;2023-05-07T01:39:12;8.70;;;4.40;;
18623;SDS011;9441;51.420;7.036;2023-05-07T01:40:14;7.07;;;4.30;;
18623;SDS011;9441;51.420;7.036;2023-05-07T01:41:17;7.67;;;4.53;;
18623;SDS011;9441;51.420;7.036;2023-05-07T01:42:20;8.33;;;4.40;;
18623;SDS011;9441;51.420;7.036;2023-05-07T01:43:22;6.00;;;4.47;;
18623;SDS011;9441;51.420;7.036;2023-05-07T01:44:23;5.47;;;4.53;;
18623;SDS011;9441;51.420;7.036;2023-05-07T01:45:26;12.10;;;4.20;;
18623;SDS011;9441;51.420;7.036;2023-05-07T01:46:28;9.63;;;4.83;;
18623;SDS011;9441;51.420;7.036;2023-05-07T01:47:30;8.25;;;4.93;;
18623;SDS011;9441;51.420;7.036;2023-05-07T01:48:32;8.97;;;5.00;;
18623;SDS011;9441;51.420;7.036;2023-05-07T01:49:34;6.70;;;4.70;;
18623;SDS011;9441;51.420;7.036;2023-05-07T01:50:36;6.10;;;4.87;;
18623;SDS011;9441;51.420;7.036;2023-05-07T01:51:39;8.90;;;5.27;;
18623;SDS011;9441;51.420;7.036;2023-05-07T01:52:40;7.93;;;4.70;;
18623;SDS011;9441;51.420;7.036;2023-05-07T01:53:44;7.93;;;4.37;;
18623;SDS011;9441;51.420;7.036;2023-05-07T01:54:48;11.43;;;5.17;;
18623;SDS011;9441;51.420;7.036;2023-05-07T01:55:50;8.60;;;4.70;;
18623;SDS011;9441;51.420;7.036;2023-05-07T01:56:52;8.70;;;4.93;;
18623;SDS011;9441;51.420;7.036;2023-05-07T01:57:54;9.73;;;4.50;;
18623;SDS011;9441;51.420;7.036;2023-05-07T01:58:56;9.93;;;4.57;;
18623;SDS011;9441;51.420;7.036;2023-05-07T01:59:58;12.13;;;4.57;;
18623;SDS011;9441;51.420;7.036;2023-05-07T02:01:00;9.90;;;4.57;;
18623;SDS011;9441;51.420;7.036;2023-05-07T02:02:02;13.10;;;4.80;;
18623;SDS011;9441;51.420;7.036;2023-05-07T02:03:04;9.73;;;4.47;;
18623;SDS011;9441;51.420;7.036;2023-05-07T02:04:14;7.53;;;4.70;;
18623;SDS011;9441;51.420;7.036;2023-05-07T02:05:16;7.07;;;4.50;;
18623;SDS011;9441;51.420;7.036;2023-05-07T02:06:21;7.78;;;5.10;;
18623;SDS011;9441;51.420;7.036;2023-05-07T02:07:22;9.23;;;5.10;;
18623;SDS011;9441;51.420;7.036;2023-05-07T02:08:25;9.63;;;5.77;;
18623;SDS011;9441;51.420;7.036;2023-05-07T02:09:27;6.13;;;5.07;;
18623;SDS011;9441;51.420;7.036;2023-05-07T02:10:30;6.97;;;4.87;;
18623;SDS011;9441;51.420;7.036;2023-05-07T02:11:32;8.73;;;5.20;;
18623;SDS011;9441;51.420;7.036;2023-05-07T02:12:35;10.32;;;5.13;;
18623;SDS011;9441;51.420;7.036;2023-05-07T02:13:36;9.73;;;5.53;;
18623;SDS011;9441;51.420;7.036;2023-05-07T02:14:39;12.37;;;4.97;;
18623;SDS011;9441;51.420;7.036;2023-05-07T02:15:40;6.47;;;5.00;;
18623;SDS011;9441;51.420;7.036;2023-05-07T02:16:44;8.80;;;5.03;;
18623;SDS011;9441;51.420;7.036;2023-05-07T02:18:00;10.13;;;5.23;;
18623;SDS011;9441;51.420;7.036;2023-05-07T02:19:02;9.33;;;5.30;;
18623;SDS011;9441;51.420;7.036;2023-05-07T02:20:04;11.13;;;5.17;;
18623;SDS011;9441;51.420;7.036;2023-05-07T02:21:07;9.90;;;5.73;;
18623;SDS011;9441;51.420;7.036;2023-05-07T02:22:09;9.37;;;5.47;;
18623;SDS011;9441;51.420;7.036;2023-05-07T02:23:12;8.47;;;5.07;;
18623;SDS011;9441;51.420;7.036;2023-05-07T02:24:13;8.00;;;4.67;;
18623;SDS011;9441;51.420;7.036;2023-05-07T02:25:17;7.47;;;5.33;;
18623;SDS011;9441;51.420;7.036;2023-05-07T02:26:18;9.67;;;5.10;;
18623;SDS011;9441;51.420;7.036;2023-05-07T02:27:21;8.57;;;5.70;;
18623;SDS011;9441;51.420;7.036;2023-05-07T02:28:23;7.63;;;5.27;;
18623;SDS011;9441;51.420;7.036;2023-05-07T02:29:30;12.60;;;5.40;;
18623;SDS011;9441;51.420;7.036;2023-05-07T02:30:31;11.27;;;5.30;;
18623;SDS011;9441;51.420;7.036;2023-05-07T02:31:34;9.70;;;5.50;;
18623;SDS011;9441;51.420;7.036;2023-05-07T02:32:35;12.47;;;5.63;;
18623;SDS011;9441;51.420;7.036;2023-05-07T02:33:37;7.97;;;5.20;;
18623;SDS011;9441;51.420;7.036;2023-05-07T02:34:41;7.47;;;5.00;;
18623;SDS011;9441;51.420;7.036;2023-05-07T02:35:44;12.77;;;6.27;;
18623;SDS011;9441;51.420;7.036;2023-05-07T02:36:47;8.87;;;5.40;;
18623;SDS011;9441;51.420;7.036;2023-05-07T02:37:53;7.90;;;5.50;;
18623;SDS011;9441;51.420;7.036;2023-05-07T02:38:55;9.00;;;5.47;;
18623;SDS011;9441;51.420;7.036;2023-05-07T02:39:57;10.00;;;6.23;;
18623;SDS011;9441;51.420;7.036;2023-05-07T02:41:00;12.87;;;5.30;;
18623;SDS011;9441;51.420;7.036;2023-05-07T02:42:02;9.10;;;5.90;;
18623;SDS011;9441;51.420;7.036;2023-05-07T02:43:03;7.60;;;5.87;;
18623;SDS011;9441;51.420;7.036;2023-05-07T02:44:06;14.83;;;5.93;;
18623;SDS011;9441;51.420;7.036;2023-05-07T02:45:08;11.27;;;5.60;;
18623;SDS011;9441;51.420;7.036;2023-05-07T02:46:12;14.50;;;5.60;;
18623;SDS011;9441;51.420;7.036;2023-05-07T02:47:18;13.80;;;5.73;;
18623;SDS011;9441;51.420;7.036;2023-05-07T02:48:20;9.03;;;5.53;;
18623;SDS011;9441;51.420;7.036;2023-05-07T02:49:21;10.73;;;5.57;;
18623;SDS011;9441;51.420;7.036;2023-05-07T02:50:24;8.30;;;5.30;;
18623;SDS011;9441;51.420;7.036;2023-05-07T02:51:27;12.77;;;6.20;;
18623;SDS011;9441;51.420;7.036;2023-05-07T02:52:32;13.00;;;5.77;;
18623;SDS011;9441;51.420;7.036;2023-05-07T02:53:34;9.67;;;5.80;;
18623;SDS011;9441;51.420;7.036;2023-05-07T02:54:36;8.27;;;5.50;;
18623;SDS011;9441;51.420;7.036;2023-05-07T02:55:37;9.13;;;5.80;;
18623;SDS011;9441;51.420;7.036;2023-05-07T02:56:41;9.93;;;6.00;;
18623;SDS011;9441;51.420;7.036;2023-05-07T02:57:42;8.88;;;5.43;;
18623;SDS011;9441;51.420;7.036;2023-05-07T02:58:45;12.73;;;5.40;;
18623;SDS011;9441;51.420;7.036;2023-05-07T02:59:47;10.87;;;5.80;;
18623;SDS011;9441;51.420;7.036;2023-05-07T03:00:52;13.00;;;5.97;;
18623;SDS011;9441;51.420;7.036;2023-05-07T03:02:15;9.13;;;5.80;;
18623;SDS011;9441;51.420;7.036;2023-05-07T03:03:17;12.87;;;5.70;;
18623;SDS011;9441;51.420;7.036;2023-05-07T03:04:18;9.43;;;5.60;;
18623;SDS011;9441;51.420;7.036;2023-05-07T03:05:21;8.88;;;6.15;;
18623;SDS011;9441;51.420;7.036;2023-05-07T03:06:22;14.03;;;5.67;;
18623;SDS011;9441;51.420;7.036;2023-05-07T03:07:24;10.90;;;6.53;;
18623;SDS011;9441;51.420;7.036;2023-05-07T03:08:26;11.27;;;6.30;;
18623;SDS011;9441;51.420;7.036;2023-05-07T03:09:28;25.30;;;7.00;;
18623;SDS011;9441;51.420;7.036;2023-05-07T03:10:30;14.27;;;6.70;;
18623;SDS011;9441;51.420;7.036;2023-05-07T03:11:32;13.13;;;6.53;;
18623;SDS011;9441;51.420;7.036;2023-05-07T03:12:35;13.03;;;6.37;;
18623;SDS011;9441;51.420;7.036;2023-05-07T03:13:37;10.50;;;6.63;;
18623;SDS011;9441;51.420;7.036;2023-05-07T03:14:39;19.80;;;7.87;;
18623;SDS011;9441;51.420;7.036;2023-05-07T03:15:41;11.30;;;6.27;;
18623;SDS011;9441;51.420;7.036;2023-05-07T03:16:42;12.83;;;6.27;;
18623;SDS011;9441;51.420;7.036;2023-05-07T03:17:44;11.47;;;6.20;;
18623;SDS011;9441;51.420;7.036;2023-05-07T03:18:46;9.80;;;6.13;;
18623;SDS011;9441;51.420;7.036;2023-05-07T03:19:48;10.70;;;6.30;;
18623;SDS011;9441;51.420;7.036;2023-05-07T03:20:51;14.17;;;6.60;;
18623;SDS011;9441;51.420;7.036;2023-05-07T03:21:53;12.10;;;6.60;;
18623;SDS011;9441;51.420;7.036;2023-05-07T03:22:55;13.93;;;7.20;;
18623;SDS011;9441;51.420;7.036;2023-05-07T03:23:57;15.17;;;7.60;;
18623;SDS011;9441;51.420;7.036;2023-05-07T03:24:59;9.60;;;6.60;;
18623;SDS011;9441;51.420;7.036;2023-05-07T03:26:01;13.53;;;6.80;;
18623;SDS011;9441;51.420;7.036;2023-05-07T03:27:03;13.10;;;7.70;;
18623;SDS011;9441;51.420;7.036;2023-05-07T03:28:06;10.07;;;7.27;;
18623;SDS011;9441;51.420;7.036;2023-05-07T03:29:16;11.23;;;7.67;;
18623;SDS011;9441;51.420;7.036;2023-05-07T03:30:18;11.60;;;6.50;;
18623;SDS011;9441;51.420;7.036;2023-05-07T03:31:21;11.97;;;6.70;;
18623;SDS011;9441;51.420;7.036;2023-05-07T03:32:23;10.53;;;6.57;;
18623;SDS011;9441;51.420;7.036;2023-05-07T03:33:25;14.63;;;7.07;;
18623;SDS011;9441;51.420;7.036;2023-05-07T03:34:28;7.90;;;6.30;;
18623;SDS011;9441;51.420;7.036;2023-05-07T03:35:30;12.47;;;7.27;;
18623;SDS011;9441;51.420;7.036;2023-05-07T03:36:32;13.63;;;7.10;;
18623;SDS011;9441;51.420;7.036;2023-05-07T03:37:35;12.80;;;7.63;;
18623;SDS011;9441;51.420;7.036;2023-05-07T03:38:36;17.23;;;7.53;;
18623;SDS011;9441;51.420;7.036;2023-05-07T03:39:40;12.60;;;6.47;;
18623;SDS011;9441;51.420;7.036;2023-05-07T03:40:41;11.53;;;6.83;;
18623;SDS011;9441;51.420;7.036;2023-05-07T03:41:43;10.67;;;7.00;;
18623;SDS011;9441;51.420;7.036;2023-05-07T03:42:45;9.77;;;7.07;;
18623;SDS011;9441;51.420;7.036;2023-05-07T03:43:50;10.90;;;6.97;;
18623;SDS011;9441;51.420;7.036;2023-05-07T03:44:51;12.07;;;7.40;;
18623;SDS011;9441;51.420;7.036;2023-05-07T03:45:53;12.40;;;7.30;;
18623;SDS011;9441;51.420;7.036;2023-05-07T03:46:59;11.13;;;7.03;;
18623;SDS011;9441;51.420;7.036;2023-05-07T03:48:01;11.00;;;7.83;;
18623;SDS011;9441;51.420;7.036;2023-05-07T03:49:02;12.93;;;7.67;;
18623;SDS011;9441;51.420;7.036;2023-05-07T03:50:05;13.17;;;7.23;;
18623;SDS011;9441;51.420;7.036;2023-05-07T03:51:06;10.40;;;6.40;;
18623;SDS011;9441;51.420;7.036;2023-05-07T03:52:10;13.03;;;7.87;;
18623;SDS011;9441;51.420;7.036;2023-05-07T03:53:12;11.97;;;7.70;;
18623;SDS011;9441;51.420;7.036;2023-05-07T03:54:14;10.00;;;7.53;;
18623;SDS011;9441;51.420;7.036;2023-05-07T03:55:18;9.77;;;7.00;;
18623;SDS011;9441;51.420;7.036;2023-05-07T03:56:26;11.57;;;7.47;;
18623;SDS011;9441;51.420;7.036;2023-05-07T03:57:29;15.03;;;7.60;;
18623;SDS011;9441;51.420;7.036;2023-05-07T03:58:33;13.40;;;7.43;;
18623;SDS011;9441;51.420;7.036;2023-05-07T03:59:40;11.03;;;7.07;;
18623;SDS011;9441;51.420;7.036;2023-05-07T04:00:43;12.17;;;8.50;;
18623;SDS011;9441;51.420;7.036;2023-05-07T04:02:10;13.20;;;8.50;;
18623;SDS011;9441;51.420;7.036;2023-05-07T04:03:13;16.07;;;8.20;;
18623;SDS011;9441;51.420;7.036;2023-05-07T04:04:15;11.33;;;7.80;;
18623;SDS011;9441;51.420;7.036;2023-05-07T04:05:17;13.07;;;7.53;;
18623;SDS011;9441;51.420;7.036;2023-05-07T04:06:22;11.20;;;7.63;;
18623;SDS011;9441;51.420;7.036;2023-05-07T04:07:24;17.23;;;8.27;;
18623;SDS011;9441;51.420;7.036;2023-05-07T04:08:25;10.73;;;8.10;;
18623;SDS011;9441;51.420;7.036;2023-05-07T04:09:29;11.20;;;8.23;;
18623;SDS011;9441;51.420;7.036;2023-05-07T04:10:31;11.33;;;7.30;;
18623;SDS011;9441;51.420;7.036;2023-05-07T04:11:37;11.90;;;8.00;;
18623;SDS011;9441;51.420;7.036;2023-05-07T04:12:42;13.83;;;8.80;;
18623;SDS011;9441;51.420;7.036;2023-05-07T04:13:49;12.83;;;8.13;;
18623;SDS011;9441;51.420;7.036;2023-05-07T04:14:55;12.63;;;9.00;;
18623;SDS011;9441;51.420;7.036;2023-05-07T04:15:58;12.73;;;8.53;;
18623;SDS011;9441;51.420;7.036;2023-05-07T04:17:00;14.00;;;9.10;;
18623;SDS011;9441;51.420;7.036;2023-05-07T04:18:03;15.70;;;8.17;;
18623;SDS011;9441;51.420;7.036;2023-05-07T04:19:04;13.03;;;8.47;;
18623;SDS011;9441;51.420;7.036;2023-05-07T04:20:08;14.10;;;7.83;;
18623;SDS011;9441;51.420;7.036;2023-05-07T04:21:14;13.47;;;7.97;;
18623;SDS011;9441;51.420;7.036;2023-05-07T04:22:17;15.00;;;8.00;;
18623;SDS011;9441;51.420;7.036;2023-05-07T04:23:19;14.13;;;8.60;;
18623;SDS011;9441;51.420;7.036;2023-05-07T04:24:21;11.77;;;8.33;;
18623;SDS011;9441;51.420;7.036;2023-05-07T04:25:22;13.53;;;8.53;;
18623;SDS011;9441;51.420;7.036;2023-05-07T04:26:27;12.37;;;8.37;;
18623;SDS011;9441;51.420;7.036;2023-05-07T04:27:30;13.77;;;7.50;;
18623;SDS011;9441;51.420;7.036;2023-05-07T04:28:32;16.00;;;8.03;;
18623;SDS011;9441;51.420;7.036;2023-05-07T04:29:34;11.17;;;8.43;;
18623;SDS011;9441;51.420;7.036;2023-05-07T04:30:38;13.53;;;7.50;;
18623;SDS011;9441;51.420;7.036;2023-05-07T04:31:41;13.70;;;8.93;;
18623;SDS011;9441;51.420;7.036;2023-05-07T04:32:44;13.33;;;7.83;;
18623;SDS011;9441;51.420;7.036;2023-05-07T04:33:46;10.47;;;7.03;;
18623;SDS011;9441;51.420;7.036;2023-05-07T04:34:49;14.07;;;7.10;;
18623;SDS011;9441;51.420;7.036;2023-05-07T04:35:50;11.03;;;8.17;;
18623;SDS011;9441;51.420;7.036;2023-05-07T04:36:53;11.73;;;7.47;;
18623;SDS011;9441;51.420;7.036;2023-05-07T04:37:54;13.23;;;8.43;;
18623;SDS011;9441;51.420;7.036;2023-05-07T04:38:56;11.87;;;8.93;;
18623;SDS011;9441;51.420;7.036;2023-05-07T04:39:57;11.70;;;8.10;;
18623;SDS011;9441;51.420;7.036;2023-05-07T04:41:02;12.37;;;9.10;;
18623;SDS011;9441;51.420;7.036;2023-05-07T04:42:04;11.27;;;7.33;;
18623;SDS011;9441;51.420;7.036;2023-05-07T04:43:08;18.67;;;9.53;;
18623;SDS011;9441;51.420;7.036;2023-05-07T04:44:15;10.97;;;8.00;;
18623;SDS011;9441;51.420;7.036;2023-05-07T04:45:17;13.20;;;8.23;;
18623;SDS011;9441;51.420;7.036;2023-05-07T04:46:22;15.83;;;7.47;;
18623;SDS011;9441;51.420;7.036;2023-05-07T04:47:25;16.73;;;8.63;;
18623;SDS011;9441;51.420;7.036;2023-05-07T04:48:26;10.30;;;6.83;;
18623;SDS011;9441;51.420;7.036;2023-05-07T04:49:29;14.70;;;8.13;;
18623;SDS011;9441;51.420;7.036;2023-05-07T04:50:32;12.17;;;7.83;;
18623;SDS011;9441;51.420;7.036;2023-05-07T04:51:36;11.80;;;7.80;;
18623;SDS011;9441;51.420;7.036;2023-05-07T04:52:38;11.20;;;7.50;;
18623;SDS011;9441;51.420;7.036;2023-05-07T04:53:41;12.90;;;8.60;;
18623;SDS011;9441;51.420;7.036;2023-05-07T04:54:43;15.83;;;8.00;;
18623;SDS011;9441;51.420;7.036;2023-05-07T04:55:46;11.60;;;7.80;;
18623;SDS011;9441;51.420;7.036;2023-05-07T04:56:48;10.40;;;7.63;;
18623;SDS011;9441;51.420;7.036;2023-05-07T04:57:51;11.97;;;7.83;;
18623;SDS011;9441;51.420;7.036;2023-05-07T04:58:52;12.67;;;7.70;;
18623;SDS011;9441;51.420;7.036;2023-05-07T04:59:55;9.50;;;7.57;;
18623;SDS011;9441;51.420;7.036;2023-05-07T05:00:57;9.73;;;7.23;;
18623;SDS011;9441;51.420;7.036;2023-05-07T05:02:00;17.30;;;8.30;;
18623;SDS011;9441;51.420;7.036;2023-05-07T05:03:02;13.60;;;7.53;;
18623;SDS011;9441;51.420;7.036;2023-05-07T05:04:05;13.03;;;7.30;;
18623;SDS011;9441;51.420;7.036;2023-05-07T05:05:07;12.03;;;7.70;;
18623;SDS011;9441;51.420;7.036;2023-05-07T05:06:09;11.23;;;7.80;;
18623;SDS011;9441;51.420;7.036;2023-05-07T05:07:11;15.07;;;9.00;;
18623;SDS011;9441;51.420;7.036;2023-05-07T05:08:13;13.83;;;9.43;;
18623;SDS011;9441;51.420;7.036;2023-05-07T05:09:16;10.83;;;7.70;;
18623;SDS011;9441;51.420;7.036;2023-05-07T05:10:18;15.30;;;9.83;;
18623;SDS011;9441;51.420;7.036;2023-05-07T05:11:20;12.03;;;8.57;;
18623;SDS011;9441;51.420;7.036;2023-05-07T05:12:22;17.80;;;8.10;;
18623;SDS011;9441;51.420;7.036;2023-05-07T05:13:25;11.43;;;7.77;;
18623;SDS011;9441;51.420;7.036;2023-05-07T05:14:26;15.37;;;9.10;;
18623;SDS011;9441;51.420;7.036;2023-05-07T05:15:29;10.43;;;7.93;;
18623;SDS011;9441;51.420;7.036;2023-05-07T05:16:35;14.90;;;8.53;;
18623;SDS011;9441;51.420;7.036;2023-05-07T05:17:39;10.80;;;7.70;;
18623;SDS011;9441;51.420;7.036;2023-05-07T05:18:40;11.80;;;8.37;;
18623;SDS011;9441;51.420;7.036;2023-05-07T05:19:45;12.37;;;8.50;;
18623;SDS011;9441;51.420;7.036;2023-05-07T05:20:46;12.53;;;8.53;;
18623;SDS011;9441;51.420;7.036;2023-05-07T05:21:49;14.60;;;9.13;;
18623;SDS011;9441;51.420;7.036;2023-05-07T05:22:50;13.77;;;8.90;;
18623;SDS011;9441;51.420;7.036;2023-05-07T05:23:53;14.20;;;9.43;;
18623;SDS011;9441;51.420;7.036;2023-05-07T05:24:57;16.33;;;8.90;;
18623;SDS011;9441;51.420;7.036;2023-05-07T05:25:59;12.67;;;8.57;;
18623;SDS011;9441;51.420;7.036;2023-05-07T05:27:04;9.20;;;7.35;;
18623;SDS011;9441;51.420;7.036;2023-05-07T05:28:07;10.15;;;7.38;;
18623;SDS011;9441;51.420;7.036;2023-05-07T05:29:08;13.00;;;7.83;;
18623;SDS011;9441;51.420;7.036;2023-05-07T05:30:14;12.20;;;7.70;;
18623;SDS011;9441;51.420;7.036;2023-05-07T05:31:18;10.80;;;7.47;;
18623;SDS011;9441;51.420;7.036;2023-05-07T05:32:23;12.93;;;8.40;;
18623;SDS011;9441;51.420;7.036;2023-05-07T05:33:29;13.17;;;8.23;;
18623;SDS011;9441;51.420;7.036;2023-05-07T05:34:36;10.97;;;7.80;;
18623;SDS011;9441;51.420;7.036;2023-05-07T05:35:39;13.85;;;8.98;;
18623;SDS011;9441;51.420;7.036;2023-05-07T05:36:45;13.27;;;8.70;;
18623;SDS011;9441;51.420;7.036;2023-05-07T05:37:48;12.10;;;8.20;;
18623;SDS011;9441;51.420;7.036;2023-05-07T05:38:52;11.73;;;8.80;;
18623;SDS011;9441;51.420;7.036;2023-05-07T05:39:53;16.00;;;8.67;;
18623;SDS011;9441;51.420;7.036;2023-05-07T05:40:56;15.32;;;8.40;;
18623;SDS011;9441;51.420;7.036;2023-05-07T05:41:57;11.85;;;8.60;;
18623;SDS011;9441;51.420;7.036;2023-05-07T05:43:01;15.23;;;8.43;;
18623;SDS011;9441;51.420;7.036;2023-05-07T05:44:02;12.93;;;9.03;;
18623;SDS011;9441;51.420;7.036;2023-05-07T05:45:05;11.98;;;7.97;;
18623;SDS011;9441;51.420;7.036;2023-05-07T05:46:07;12.93;;;8.53;;
18623;SDS011;9441;51.420;7.036;2023-05-07T05:47:12;12.43;;;9.23;;
18623;SDS011;9441;51.420;7.036;2023-05-07T05:48:14;11.90;;;8.53;;
18623;SDS011;9441;51.420;7.036;2023-05-07T05:49:17;14.77;;;8.98;;
18623;SDS011;9441;51.420;7.036;2023-05-07T05:50:19;16.08;;;9.40;;
18623;SDS011;9441;51.420;7.036;2023-05-07T05:51:22;16.25;;;9.45;;
18623;SDS011;9441;51.420;7.036;2023-05-07T05:52:23;14.00;;;10.20;;
18623;SDS011;9441;51.420;7.036;2023-05-07T05:53:26;17.77;;;9.97;;
18623;SDS011;9441;51.420;7.036;2023-05-07T05:54:28;14.75;;;9.13;;
18623;SDS011;9441;51.420;7.036;2023-05-07T05:55:30;13.93;;;9.63;;
18623;SDS011;9441;51.420;7.036;2023-05-07T05:56:32;11.57;;;8.57;;
18623;SDS011;9441;51.420;7.036;2023-05-07T05:57:35;12.75;;;9.18;;
18623;SDS011;9441;51.420;7.036;2023-05-07T05:58:37;13.43;;;9.25;;
18623;SDS011;9441;51.420;7.036;2023-05-07T05:59:41;13.90;;;9.82;;
18623;SDS011;9441;51.420;7.036;2023-05-07T06:00:44;15.38;;;10.20;;
18623;SDS011;9441;51.420;7.036;2023-05-07T06:01:46;14.40;;;9.60;;
18623;SDS011;9441;51.420;7.036;2023-05-07T06:02:48;12.57;;;7.57;;
18623;SDS011;9441;51.420;7.036;2023-05-07T06:03:55;16.23;;;9.75;;
18623;SDS011;9441;51.420;7.036;2023-05-07T06:04:58;17.52;;;8.98;;
18623;SDS011;9441;51.420;7.036;2023-05-07T06:06:01;17.60;;;9.55;;
18623;SDS011;9441;51.420;7.036;2023-05-07T06:07:03;14.35;;;9.88;;
18623;SDS011;9441;51.420;7.036;2023-05-07T06:08:05;13.73;;;10.43;;
18623;SDS011;9441;51.420;7.036;2023-05-07T06:09:08;13.25;;;9.57;;
18623;SDS011;9441;51.420;7.036;2023-05-07T06:10:15;13.10;;;9.48;;
18623;SDS011;9441;51.420;7.036;2023-05-07T06:11:17;15.73;;;10.25;;
18623;SDS011;9441;51.420;7.036;2023-05-07T06:12:21;16.70;;;10.52;;
18623;SDS011;9441;51.420;7.036;2023-05-07T06:13:23;17.10;;;10.75;;
18623;SDS011;9441;51.420;7.036;2023-05-07T06:14:25;15.88;;;10.40;;
18623;SDS011;9441;51.420;7.036;2023-05-07T06:15:29;17.33;;;10.80;;
18623;SDS011;9441;51.420;7.036;2023-05-07T06:16:36;13.85;;;10.23;;
18623;SDS011;9441;51.420;7.036;2023-05-07T06:17:40;16.58;;;10.13;;
18623;SDS011;9441;51.420;7.036;2023-05-07T06:18:44;14.23;;;9.80;;
18623;SDS011;9441;51.420;7.036;2023-05-07T06:19:47;18.63;;;10.15;;
18623;SDS011;9441;51.420;7.036;2023-05-07T06:20:53;14.90;;;9.63;;